Current | Forecast
Updated: 11:00 AM CEST on May 22, 2019
Observed at Biarritz, France
Temperature 16°C
Humidity 82%
Dew Point 13°C
Wind West at 7 km/h
Pressure 1020 hPa (Steady)
Conditions Overcast
Visibility 10.0 kilometers
UV 2 out of 16
Clouds Mostly Cloudy (BKN) : 487 m
Overcast (OVC) : 701 m
Yesterday's Maximum 17°C
Yesterday's Minimum 8°C approx.
Yesterday's Heating Degree Days 11 approx.
Sunrise6:36 AM CEST
Sunset9:31 PM CEST
Moon Rise12:14 AM CEST
Moon Set9:30 AM CEST
Moon PhaseMoon Phase
Waning Gibbous
Raw METARMETAR LFBZ 220900Z AUTO 27004KT 240V330 9999 BKN016 OVC023 16/13 Q1020 NOSIG



Units: English | Metric

Find the Weather for any City, State or Zipcode, or Country:

U.S. State List | Severe Weather | Tropical Storms | Ski Conditions
United States | Canada | Central America | South America | Asia | Europe | Australia | Africa | Islands

Weather Underground

© Copyright 2019
The Weather Company, LLC